createdAt,value
2023-02-11T00:00:27.208Z,101977.19
2023-02-11T00:02:56.901Z,101978.00
2023-02-11T00:05:25.629Z,101979.63
2023-02-11T00:07:53.043Z,101974.28
2023-02-11T00:10:23.203Z,101969.06
2023-02-11T00:12:51.153Z,101970.94
2023-02-11T00:15:44.967Z,101972.91
2023-02-11T00:18:12.944Z,101963.53
2023-02-11T00:21:28.126Z,101965.59
2023-02-11T00:24:07.250Z,101964.75
2023-02-11T00:26:58.042Z,101949.50
2023-02-11T00:29:38.371Z,101953.47
2023-02-11T00:32:06.747Z,101952.31
2023-02-11T00:34:36.013Z,101956.44
2023-02-11T00:37:27.060Z,101960.75
2023-02-11T00:40:06.950Z,101956.31
2023-02-11T00:42:58.947Z,101955.72
2023-02-11T00:45:38.264Z,101956.59
2023-02-11T00:48:28.972Z,101954.00
2023-02-11T00:51:08.607Z,101944.38
2023-02-11T00:54:00.173Z,101947.31
2023-02-11T00:56:42.071Z,101952.16
2023-02-11T00:59:33.039Z,101945.09
2023-02-11T01:02:12.236Z,101949.56
2023-02-11T01:05:03.627Z,101945.78
2023-02-11T01:07:51.174Z,101938.16
2023-02-11T01:10:56.211Z,101930.75
2023-02-11T01:13:47.792Z,101922.53
2023-02-11T01:16:28.992Z,101922.03
2023-02-11T01:19:16.483Z,101912.84
2023-02-11T01:21:46.712Z,101910.25
2023-02-11T01:24:29.166Z,101907.47
2023-02-11T01:27:32.792Z,101904.47
2023-02-11T01:30:14.150Z,101914.63
2023-02-11T01:33:04.937Z,101903.34
2023-02-11T01:35:44.556Z,101899.19
2023-02-11T01:38:40.958Z,101895.56
2023-02-11T01:41:32.153Z,101889.00
2023-02-11T01:44:28.153Z,101892.66
2023-02-11T01:47:07.319Z,101896.09
2023-02-11T01:50:01.809Z,101895.97
2023-02-11T01:52:41.419Z,101891.91
2023-02-11T02:00:04.592Z,101891.50
2023-02-11T02:02:58.961Z,101893.56
2023-02-11T02:06:03.633Z,101886.41
2023-02-11T02:09:04.066Z,101890.19
2023-02-11T02:11:31.869Z,101888.75
2023-02-11T02:13:59.976Z,101890.87
2023-02-11T02:16:36.594Z,101892.13
2023-02-11T02:19:10.269Z,101890.97
2023-02-11T02:22:11.202Z,101888.97
2023-02-11T02:25:06.910Z,101885.72
2023-02-11T02:28:06.379Z,101888.25
2023-02-11T02:31:07.490Z,101886.06
2023-02-11T02:34:09.761Z,101880.41
2023-02-11T02:36:58.066Z,101882.16
2023-02-11T02:39:50.608Z,101882.16
2023-02-11T02:42:31.046Z,101872.78
2023-02-11T02:45:22.010Z,101880.28
2023-02-11T02:48:01.297Z,101868.81
2023-02-11T02:51:09.897Z,101874.37
2023-02-11T02:54:01.195Z,101869.44
2023-02-11T02:56:58.132Z,101867.06
2023-02-11T03:00:15.265Z,101869.50
2023-02-11T03:03:17.811Z,101860.00
2023-02-11T03:06:17.998Z,101855.81
2023-02-11T03:09:06.240Z,101867.66
2023-02-11T03:11:57.138Z,101868.41
2023-02-11T03:14:27.120Z,101862.38
2023-02-11T03:17:17.637Z,101858.38
2023-02-11T03:19:47.047Z,101850.50
2023-02-11T03:22:43.119Z,101847.91
2023-02-11T03:25:10.706Z,101847.03
2023-02-11T03:27:54.419Z,101844.28
2023-02-11T03:30:31.173Z,101846.56
2023-02-11T03:33:05.857Z,101846.22
2023-02-11T03:35:58.562Z,101847.88
2023-02-11T03:38:31.124Z,101842.88
2023-02-11T03:41:06.057Z,101831.84
2023-02-11T03:43:58.419Z,101831.84
2023-02-11T03:46:39.426Z,101822.03
2023-02-11T03:49:45.587Z,101821.28
2023-02-11T03:52:26.473Z,101817.81
2023-02-11T03:54:57.082Z,101807.25
2023-02-11T03:57:24.773Z,101803.31
2023-02-11T03:59:57.958Z,101807.94
2023-02-11T04:02:30.791Z,101795.03
2023-02-11T04:04:58.924Z,101789.50
2023-02-11T04:07:26.380Z,101784.69
2023-02-11T04:09:54.257Z,101792.59
2023-02-11T04:12:22.965Z,101785.97
2023-02-11T04:14:50.559Z,101779.66
2023-02-11T04:17:42.290Z,101774.16
2023-02-11T04:20:10.931Z,101770.66
2023-02-11T04:22:52.826Z,101767.22
2023-02-11T04:25:32.153Z,101765.97
2023-02-11T04:28:00.806Z,101763.69
2023-02-11T04:30:50.051Z,101768.00
2023-02-11T04:33:38.784Z,101759.28
2023-02-11T04:36:08.715Z,101764.75
2023-02-11T04:39:00.104Z,101765.44
2023-02-11T04:41:39.143Z,101758.87
2023-02-11T04:48:50.693Z,101759.66
2023-02-11T04:51:42.384Z,101767.59
2023-02-11T04:54:22.330Z,101761.16
2023-02-11T04:57:13.849Z,101762.84
2023-02-11T04:59:42.342Z,101759.03
2023-02-11T05:02:11.056Z,101760.22
2023-02-11T05:04:50.039Z,101763.38
2023-02-11T05:07:41.131Z,101771.94
2023-02-11T05:10:20.099Z,101769.13
2023-02-11T05:13:10.845Z,101778.09
2023-02-11T05:15:50.716Z,101772.37
2023-02-11T05:18:42.915Z,101773.94
2023-02-11T05:21:22.343Z,101770.47
2023-02-11T05:24:13.892Z,101769.09
2023-02-11T05:26:53.128Z,101765.31
2023-02-11T05:29:43.895Z,101770.44
2023-02-11T05:32:23.248Z,101765.25
2023-02-11T05:35:14.866Z,101765.87
2023-02-11T05:37:54.348Z,101757.84
2023-02-11T05:40:45.910Z,101757.72
2023-02-11T05:43:25.193Z,101749.47
2023-02-11T05:46:17.659Z,101752.88
2023-02-11T05:48:57.106Z,101755.47
2023-02-11T05:51:47.944Z,101754.19
2023-02-11T05:58:40.852Z,101738.50
2023-02-11T06:01:31.952Z,101742.09
2023-02-11T06:04:23.012Z,101750.56
2023-02-11T06:07:02.409Z,101760.59
2023-02-11T06:09:53.864Z,101763.69
2023-02-11T06:12:32.957Z,101766.22
2023-02-11T06:15:23.920Z,101767.56
2023-02-11T06:18:06.246Z,101765.84
2023-02-11T06:21:01.830Z,101761.91
2023-02-11T06:23:41.042Z,101757.69
2023-02-11T06:26:32.871Z,101759.19
2023-02-11T06:29:02.678Z,101754.44
2023-02-11T06:31:53.915Z,101748.16
2023-02-11T06:34:32.998Z,101742.88
2023-02-11T06:37:24.129Z,101741.53
2023-02-11T06:40:04.271Z,101744.88
2023-02-11T06:42:55.915Z,101747.19
2023-02-11T06:45:35.049Z,101732.06
2023-02-11T06:48:28.725Z,101737.25
2023-02-11T06:51:10.040Z,101733.97
2023-02-11T06:54:00.858Z,101737.16
2023-02-11T06:56:41.267Z,101732.28
2023-02-11T06:59:33.842Z,101721.19
2023-02-11T07:02:13.229Z,101723.28
2023-02-11T07:05:10.113Z,101727.75
2023-02-11T07:07:51.782Z,101722.94
2023-02-11T07:10:42.849Z,101723.72
2023-02-11T07:13:21.992Z,101727.12
2023-02-11T07:16:15.343Z,101722.22
2023-02-11T07:18:55.023Z,101720.81
2023-02-11T07:21:45.848Z,101715.72
2023-02-11T07:24:25.499Z,101721.19
2023-02-11T07:30:57.419Z,101716.72
2023-02-11T07:37:17.381Z,101714.50
2023-02-11T07:40:34.414Z,101717.38
2023-02-11T07:43:26.594Z,101717.97
2023-02-11T07:46:27.746Z,101708.59
2023-02-11T07:49:12.629Z,101711.25
2023-02-11T07:51:43.485Z,101698.63
2023-02-11T07:55:06.414Z,101694.94
2023-02-11T08:00:02.371Z,101697.03
2023-02-11T08:02:33.273Z,101692.34
2023-02-11T08:05:01.815Z,101678.22
2023-02-11T08:07:30.331Z,101680.97
2023-02-11T08:09:58.122Z,101682.53
2023-02-11T08:12:44.799Z,101673.87
2023-02-11T08:15:12.707Z,101681.09
2023-02-11T08:17:47.053Z,101673.31
2023-02-11T08:20:17.061Z,101675.59
2023-02-11T08:22:45.742Z,101675.09
2023-02-11T08:25:24.260Z,101678.50
2023-02-11T08:27:52.517Z,101673.84
2023-02-11T08:30:25.654Z,101666.22
2023-02-11T08:32:56.978Z,101664.13
2023-02-11T08:35:26.256Z,101662.53
2023-02-11T08:37:54.469Z,101665.91
2023-02-11T08:40:23.029Z,101663.34
2023-02-11T08:43:05.691Z,101665.66
2023-02-11T08:45:37.831Z,101671.94
2023-02-11T08:48:43.644Z,101666.69
2023-02-11T08:51:28.335Z,101665.03
2023-02-11T08:53:56.357Z,101666.75
2023-02-11T08:56:25.003Z,101661.19
2023-02-11T08:58:53.182Z,101663.84
2023-02-11T09:01:24.267Z,101669.78
2023-02-11T09:03:53.067Z,101659.59
2023-02-11T09:06:21.227Z,101661.41
2023-02-11T09:08:51.087Z,101671.19
2023-02-11T09:11:21.513Z,101650.78
2023-02-11T09:13:49.048Z,101654.19
2023-02-11T09:16:19.982Z,101635.91
2023-02-11T09:18:48.700Z,101639.75
2023-02-11T09:21:17.561Z,101643.28
2023-02-11T09:23:47.812Z,101653.69
2023-02-11T09:26:24.749Z,101646.91
2023-02-11T09:28:53.166Z,101638.06
2023-02-11T09:31:23.257Z,101636.19
2023-02-11T09:33:54.036Z,101634.66
2023-02-11T09:36:24.652Z,101626.97
2023-02-11T09:38:55.038Z,101622.63
2023-02-11T09:41:41.106Z,101618.38
2023-02-11T09:44:25.950Z,101611.28
2023-02-11T09:47:00.005Z,101608.50
2023-02-11T09:49:37.266Z,101610.63
2023-02-11T09:52:20.425Z,101608.94
2023-02-11T09:54:55.121Z,101604.59
2023-02-11T09:57:29.221Z,101606.34
2023-02-11T09:59:57.800Z,101599.31
2023-02-11T10:02:55.046Z,101597.56
2023-02-11T10:05:36.796Z,101597.56
2023-02-11T10:08:20.740Z,101603.72
2023-02-11T10:11:29.650Z,101590.56
2023-02-11T10:14:37.457Z,101586.97
2023-02-11T10:17:27.696Z,101571.94
2023-02-11T10:20:37.248Z,101577.19
2023-02-11T10:23:24.735Z,101567.50
2023-02-11T10:25:54.795Z,101567.56
2023-02-11T10:28:35.438Z,101562.94
2023-02-11T10:31:06.144Z,101570.00
2023-02-11T10:33:45.773Z,101561.91
2023-02-11T10:36:15.085Z,101563.81
2023-02-11T10:38:43.488Z,101556.16
2023-02-11T10:41:18.164Z,101549.63
2023-02-11T10:43:46.236Z,101547.06
2023-02-11T10:46:18.068Z,101547.12
2023-02-11T10:48:51.659Z,101541.28
2023-02-11T10:51:30.239Z,101534.22
2023-02-11T10:54:04.104Z,101539.53
2023-02-11T10:56:35.198Z,101534.16
2023-02-11T10:59:14.975Z,101530.59
2023-02-11T11:01:49.208Z,101526.94
2023-02-11T11:04:34.409Z,101524.16
2023-02-11T11:07:27.245Z,101526.78
2023-02-11T11:10:02.880Z,101527.69
2023-02-11T11:12:36.449Z,101510.72
2023-02-11T11:15:10.399Z,101507.75
2023-02-11T11:17:38.585Z,101499.75
2023-02-11T11:20:35.407Z,101487.78
2023-02-11T11:23:19.152Z,101487.56
2023-02-11T11:25:59.720Z,101480.34
2023-02-11T11:28:28.706Z,101474.88
2023-02-11T11:30:57.157Z,101464.19
2023-02-11T11:33:35.825Z,101463.87
2023-02-11T11:36:09.120Z,101464.66
2023-02-11T11:38:38.696Z,101456.50
2023-02-11T11:41:33.564Z,101454.16
2023-02-11T11:44:26.180Z,101446.16
2023-02-11T11:47:12.568Z,101443.91
2023-02-11T11:49:49.652Z,101431.13
2023-02-11T11:52:36.187Z,101436.09
2023-02-11T11:55:50.313Z,101439.78
2023-02-11T11:58:20.967Z,101424.34
2023-02-11T12:01:03.852Z,101419.00
2023-02-11T12:03:49.752Z,101419.69
2023-02-11T12:06:23.271Z,101417.31
2023-02-11T12:09:17.205Z,101429.53
2023-02-11T12:11:57.001Z,101416.94
2023-02-11T12:14:47.051Z,101407.56
2023-02-11T12:17:34.126Z,101399.69
2023-02-11T12:20:18.224Z,101393.09
2023-02-11T12:22:52.295Z,101383.34
2023-02-11T12:25:27.374Z,101368.50
2023-02-11T12:28:03.833Z,101356.41
2023-02-11T12:30:58.825Z,101358.84
2023-02-11T12:33:34.460Z,101346.59
2023-02-11T12:36:15.544Z,101342.25
2023-02-11T12:38:51.303Z,101334.19
2023-02-11T12:41:56.992Z,101335.94
2023-02-11T12:44:51.899Z,101328.75
2023-02-11T12:47:28.989Z,101325.47
2023-02-11T12:50:25.354Z,101328.22
2023-02-11T12:53:18.888Z,101325.28
2023-02-11T12:55:48.993Z,101318.28
2023-02-11T12:58:25.399Z,101314.87
2023-02-11T13:01:11.043Z,101301.50
2023-02-11T13:03:49.010Z,101304.25
2023-02-11T13:06:27.924Z,101302.50
2023-02-11T13:09:01.533Z,101294.75
2023-02-11T13:11:41.380Z,101296.41
2023-02-11T13:14:23.947Z,101286.12
2023-02-11T13:16:51.719Z,101298.34
2023-02-11T13:19:36.131Z,101299.94
2023-02-11T13:22:20.067Z,101293.84
2023-02-11T13:24:57.006Z,101291.56
2023-02-11T13:27:44.068Z,101294.87
2023-02-11T13:30:36.932Z,101285.66
2023-02-11T13:33:06.699Z,101275.13
2023-02-11T13:35:40.091Z,101278.34
2023-02-11T13:38:23.801Z,101270.94
2023-02-11T13:41:17.581Z,101273.03
2023-02-11T13:43:45.561Z,101277.72
2023-02-11T13:46:15.370Z,101274.63
2023-02-11T13:48:48.238Z,101274.22
2023-02-11T13:51:17.735Z,101269.22
2023-02-11T13:53:57.652Z,101271.94
2023-02-11T13:56:37.766Z,101281.03
2023-02-11T13:59:25.262Z,101284.09
2023-02-11T14:02:18.049Z,101286.72
2023-02-11T14:05:34.366Z,101279.56
2023-02-11T14:08:26.516Z,101282.44
2023-02-11T14:11:14.812Z,101288.19
2023-02-11T14:14:02.575Z,101280.41
2023-02-11T14:16:38.066Z,101267.34
2023-02-11T14:19:06.732Z,101260.69
2023-02-11T14:21:37.438Z,101256.66
2023-02-11T14:24:05.047Z,101260.28
2023-02-11T14:26:46.769Z,101265.97
2023-02-11T14:29:18.016Z,101280.78
2023-02-11T14:32:18.207Z,101276.12
2023-02-11T14:35:10.717Z,101290.13
2023-02-11T14:37:50.365Z,101296.50
2023-02-11T14:40:32.502Z,101286.03
2023-02-11T14:43:14.234Z,101281.13
2023-02-11T14:45:51.666Z,101284.94
2023-02-11T14:48:21.237Z,101287.22
2023-02-11T14:50:55.028Z,101286.84
2023-02-11T14:53:24.313Z,101274.41
2023-02-11T14:55:54.259Z,101273.63
2023-02-11T14:58:32.666Z,101280.28
2023-02-11T15:01:03.306Z,101271.31
2023-02-11T15:03:35.218Z,101268.69
2023-02-11T15:06:07.189Z,101264.44
2023-02-11T15:08:37.017Z,101262.78
2023-02-11T15:11:11.597Z,101253.59
2023-02-11T15:13:39.237Z,101263.59
2023-02-11T15:16:09.372Z,101257.84
2023-02-11T15:18:42.157Z,101254.37
2023-02-11T15:21:12.143Z,101251.63
2023-02-11T15:23:41.137Z,101247.50
2023-02-11T15:26:21.378Z,101239.19
2023-02-11T15:28:52.069Z,101241.03
2023-02-11T15:31:25.497Z,101234.00
2023-02-11T15:33:54.176Z,101237.47
2023-02-11T15:36:28.761Z,101227.94
2023-02-11T15:39:16.575Z,101233.13
2023-02-11T15:41:44.544Z,101224.22
2023-02-11T15:44:32.367Z,101228.62
2023-02-11T15:46:59.987Z,101227.41
2023-02-11T15:49:28.261Z,101223.19
2023-02-11T15:51:57.386Z,101221.50
2023-02-11T15:54:29.432Z,101219.59
2023-02-11T15:57:05.996Z,101218.09
2023-02-11T15:59:40.139Z,101213.44
2023-02-11T16:02:29.767Z,101223.44
2023-02-11T16:05:00.912Z,101215.69
2023-02-11T16:07:49.852Z,101216.44
2023-02-11T16:10:23.988Z,101214.28
2023-02-11T16:12:59.213Z,101211.81
2023-02-11T16:15:34.055Z,101206.28
2023-02-11T16:18:05.779Z,101208.66
2023-02-11T16:20:36.879Z,101207.44
2023-02-11T16:23:08.041Z,101207.19
2023-02-11T16:25:36.566Z,101207.06
2023-02-11T16:28:05.274Z,101193.84
2023-02-11T16:30:37.540Z,101193.00
2023-02-11T16:33:05.737Z,101186.19
2023-02-11T16:35:33.456Z,101182.78
2023-02-11T16:38:00.879Z,101180.00
2023-02-11T16:40:28.668Z,101186.25
2023-02-11T16:42:56.378Z,101195.12
2023-02-11T16:45:23.999Z,101198.78
2023-02-11T16:47:52.023Z,101198.75
2023-02-11T16:50:22.535Z,101202.91
2023-02-11T16:52:50.209Z,101211.78
2023-02-11T16:55:18.739Z,101201.94
2023-02-11T16:57:46.684Z,101200.25
2023-02-11T17:00:16.274Z,101193.50
2023-02-11T17:02:44.371Z,101195.69
2023-02-11T17:05:23.045Z,101200.81
2023-02-11T17:07:51.731Z,101202.87
2023-02-11T17:10:23.664Z,101201.97
2023-02-11T17:12:52.666Z,101203.50
2023-02-11T17:15:20.619Z,101197.16
2023-02-11T17:17:48.461Z,101203.13
2023-02-11T17:20:16.816Z,101201.78
2023-02-11T17:22:44.514Z,101194.47
2023-02-11T17:25:12.432Z,101200.97
2023-02-11T17:27:40.695Z,101198.97
2023-02-11T17:30:09.363Z,101202.87
2023-02-11T17:32:37.516Z,101193.88
2023-02-11T17:35:08.379Z,101206.22
2023-02-11T17:37:36.191Z,101199.81
2023-02-11T17:40:03.973Z,101214.56
2023-02-11T17:42:31.892Z,101219.50
2023-02-11T17:44:59.500Z,101217.84
2023-02-11T17:47:27.364Z,101204.69
2023-02-11T17:49:55.266Z,101210.19
2023-02-11T17:52:24.322Z,101211.06
2023-02-11T17:54:52.019Z,101211.94
2023-02-11T17:57:20.068Z,101208.28
2023-02-11T17:59:47.662Z,101209.41
2023-02-11T18:02:15.277Z,101211.84
2023-02-11T18:04:43.478Z,101202.34
2023-02-11T18:07:11.294Z,101199.87
2023-02-11T18:09:40.307Z,101199.75
2023-02-11T18:12:08.622Z,101192.50
2023-02-11T18:14:38.654Z,101189.19
2023-02-11T18:17:06.704Z,101177.97
2023-02-11T18:19:36.637Z,101175.25
2023-02-11T18:22:04.470Z,101181.44
2023-02-11T18:24:32.456Z,101176.91
2023-02-11T18:27:00.328Z,101176.03
2023-02-11T18:29:28.104Z,101167.97
2023-02-11T18:31:56.987Z,101170.75
2023-02-11T18:34:25.681Z,101176.97
2023-02-11T18:36:53.996Z,101168.19
2023-02-11T18:39:24.201Z,101170.62
2023-02-11T18:41:56.801Z,101169.63
2023-02-11T18:44:25.899Z,101168.22
2023-02-11T18:46:54.112Z,101181.38
2023-02-11T18:49:21.696Z,101176.97
2023-02-11T18:51:49.322Z,101176.22
2023-02-11T18:54:17.337Z,101185.81
2023-02-11T18:56:44.970Z,101171.28
2023-02-11T18:59:13.110Z,101179.91
2023-02-11T19:01:43.394Z,101174.75
2023-02-11T19:04:11.537Z,101169.44
2023-02-11T19:06:39.552Z,101181.69
2023-02-11T19:09:10.337Z,101178.00
2023-02-11T19:11:53.898Z,101181.63
2023-02-11T19:14:24.769Z,101192.75
2023-02-11T19:16:54.695Z,101190.09
2023-02-11T19:19:24.212Z,101176.97
2023-02-11T19:21:51.921Z,101189.69
2023-02-11T19:24:20.249Z,101190.09
2023-02-11T19:26:53.086Z,101185.91
2023-02-11T19:29:20.859Z,101193.34
2023-02-11T19:31:49.997Z,101193.37
2023-02-11T19:34:20.066Z,101196.84
2023-02-11T19:36:49.534Z,101204.09
2023-02-11T19:39:18.523Z,101193.66
2023-02-11T19:41:46.339Z,101193.78
2023-02-11T19:44:17.238Z,101194.50
2023-02-11T19:46:46.073Z,101185.69
2023-02-11T19:49:22.873Z,101190.13
2023-02-11T19:51:52.420Z,101177.59
2023-02-11T19:54:20.430Z,101185.87
2023-02-11T19:56:48.865Z,101183.09
2023-02-11T19:59:16.758Z,101186.44
2023-02-11T20:01:47.642Z,101200.63
2023-02-11T20:04:16.915Z,101189.31
2023-02-11T20:06:44.839Z,101185.78
2023-02-11T20:09:14.283Z,101176.78
2023-02-11T20:11:42.729Z,101171.41
2023-02-11T20:14:13.035Z,101176.72
2023-02-11T20:16:48.758Z,101181.31
2023-02-11T20:19:22.313Z,101170.03
2023-02-11T20:21:52.562Z,101170.97
2023-02-11T20:24:21.983Z,101158.56
2023-02-11T20:27:01.884Z,101162.75
2023-02-11T20:29:59.425Z,101162.91
2023-02-11T20:32:26.910Z,101170.72
2023-02-11T20:34:54.725Z,101174.34
2023-02-11T20:37:22.316Z,101174.19
2023-02-11T20:39:51.005Z,101174.84
2023-02-11T20:42:19.365Z,101167.25
2023-02-11T20:44:49.617Z,101162.94
2023-02-11T20:47:17.079Z,101169.06
2023-02-11T20:49:44.856Z,101160.56
2023-02-11T20:52:12.416Z,101163.13
2023-02-11T20:54:39.837Z,101162.13
2023-02-11T20:57:07.909Z,101164.91
2023-02-11T20:59:35.382Z,101175.75
2023-02-11T21:02:02.968Z,101169.50
2023-02-11T21:04:30.991Z,101172.78
2023-02-11T21:07:00.435Z,101176.06
2023-02-11T21:09:30.454Z,101174.28
2023-02-11T21:11:59.156Z,101171.19
2023-02-11T21:14:27.148Z,101167.59
2023-02-11T21:16:55.100Z,101166.03
2023-02-11T21:19:23.038Z,101165.59
2023-02-11T21:21:51.359Z,101158.41
2023-02-11T21:24:18.839Z,101169.97
2023-02-11T21:26:46.696Z,101154.34
2023-02-11T21:29:14.157Z,101161.84
2023-02-11T21:31:42.239Z,101166.38
2023-02-11T21:34:10.294Z,101165.19
2023-02-11T21:36:37.773Z,101175.63
2023-02-11T21:39:06.059Z,101172.81
2023-02-11T21:41:34.937Z,101178.41
2023-02-11T21:44:02.468Z,101183.91
2023-02-11T21:46:31.012Z,101177.72
2023-02-11T21:49:00.409Z,101170.81
2023-02-11T21:51:27.936Z,101175.87
2023-02-11T21:53:56.813Z,101168.00
2023-02-11T21:56:28.144Z,101172.06
2023-02-11T21:58:57.497Z,101182.37
2023-02-11T22:01:30.875Z,101178.75
2023-02-11T22:03:59.041Z,101169.75
2023-02-11T22:06:31.006Z,101171.00
2023-02-11T22:09:01.786Z,101158.28
2023-02-11T22:11:29.516Z,101156.47
2023-02-11T22:13:57.906Z,101153.00
2023-02-11T22:16:27.070Z,101154.34
2023-02-11T22:18:56.555Z,101154.31
2023-02-11T22:21:24.581Z,101161.44
2023-02-11T22:23:55.165Z,101169.31
2023-02-11T22:26:25.608Z,101182.59
2023-02-11T22:28:53.930Z,101182.66
2023-02-11T22:31:34.252Z,101189.63
2023-02-11T22:34:07.796Z,101193.91
2023-02-11T22:37:02.500Z,101200.13
2023-02-11T22:39:35.123Z,101181.97
2023-02-11T22:42:02.756Z,101188.34
2023-02-11T22:44:30.367Z,101187.25
2023-02-11T22:47:00.669Z,101199.87
2023-02-11T22:49:29.062Z,101193.09
2023-02-11T22:51:56.703Z,101198.84
2023-02-11T22:54:51.551Z,101197.72
2023-02-11T22:57:30.866Z,101201.97
2023-02-11T23:00:26.427Z,101209.06
2023-02-11T23:02:54.698Z,101210.00
2023-02-11T23:05:23.037Z,101218.94
2023-02-11T23:07:56.765Z,101212.28
2023-02-11T23:10:47.629Z,101197.34
2023-02-11T23:13:26.807Z,101193.81
2023-02-11T23:16:20.888Z,101186.69
2023-02-11T23:19:01.039Z,101181.59
2023-02-11T23:21:53.211Z,101185.91
2023-02-11T23:24:32.994Z,101188.78
2023-02-11T23:27:27.726Z,101181.91
2023-02-11T23:30:07.326Z,101183.72
2023-02-11T23:33:22.280Z,101180.22
2023-02-11T23:36:02.052Z,101189.41
2023-02-11T23:38:54.591Z,101173.34
2023-02-11T23:41:33.797Z,101179.56
2023-02-11T23:44:28.485Z,101181.88
2023-02-11T23:47:07.940Z,101181.91
2023-02-11T23:50:00.280Z,101186.47
2023-02-11T23:52:39.867Z,101185.78
2023-02-11T23:55:21.651Z,101174.44
2023-02-11T23:58:13.432Z,101158.44
